createdAt,value
2019-05-22T00:07:55.753Z,35.47
2019-05-22T00:14:16.995Z,32.67
2019-05-22T00:20:36.202Z,34.97
2019-05-22T00:23:37.301Z,35.03
2019-05-22T00:29:33.262Z,35.53
2019-05-22T00:43:14.016Z,33.43
2019-05-22T00:49:27.278Z,33.07
2019-05-22T00:52:29.228Z,32.60
2019-05-22T00:58:55.595Z,29.67
2019-05-22T01:01:44.866Z,30.70
2019-05-22T01:08:06.801Z,29.67
2019-05-22T01:14:09.383Z,30.17
2019-05-22T01:20:43.516Z,29.00
2019-05-22T01:27:04.826Z,29.07
2019-05-22T01:33:28.233Z,30.33
2019-05-22T01:36:57.906Z,31.93
2019-05-22T01:40:29.294Z,32.83
2019-05-22T01:43:14.568Z,33.10
2019-05-22T01:49:16.854Z,32.57
2019-05-22T01:55:32.289Z,30.73
2019-05-22T02:04:38.758Z,28.00
2019-05-22T02:14:06.476Z,18.83
2019-05-22T02:20:27.018Z,16.00
2019-05-22T02:23:38.200Z,15.60
2019-05-22T02:26:22.298Z,14.23
2019-05-22T02:32:24.059Z,13.07
2019-05-22T02:35:14.861Z,13.77
2019-05-22T02:37:58.956Z,12.83
2019-05-22T02:44:13.543Z,12.23
2019-05-22T02:50:15.117Z,10.47
2019-05-22T02:56:53.556Z,9.13
2019-05-22T02:59:44.016Z,7.70
2019-05-22T03:06:07.589Z,7.73
2019-05-22T03:09:36.379Z,7.67
2019-05-22T03:12:20.258Z,7.87
2019-05-22T03:15:50.589Z,8.00
2019-05-22T03:18:34.411Z,7.63
2019-05-22T03:24:36.511Z,9.80
2019-05-22T03:31:18.517Z,10.67
2019-05-22T03:37:19.096Z,9.87
2019-05-22T03:43:35.445Z,9.93
2019-05-22T03:46:46.362Z,9.37
2019-05-22T03:49:31.315Z,10.23
2019-05-22T03:52:22.160Z,9.80
2019-05-22T03:55:05.247Z,10.60
2019-05-22T03:57:48.288Z,10.27
2019-05-22T04:00:43.354Z,10.43
2019-05-22T04:03:43.857Z,10.17
2019-05-22T04:13:20.932Z,9.47
2019-05-22T04:19:16.541Z,10.03
2019-05-22T04:22:07.255Z,10.20
2019-05-22T04:24:51.426Z,9.40
2019-05-22T04:28:02.524Z,9.57
2019-05-22T04:30:46.310Z,9.83
2019-05-22T04:36:40.066Z,10.00
2019-05-22T04:42:59.488Z,9.87
2019-05-22T04:49:08.090Z,10.20
2019-05-22T04:51:51.288Z,10.07
2019-05-22T04:55:02.341Z,11.03
2019-05-22T04:57:46.036Z,10.90
2019-05-22T05:04:00.472Z,10.17
2019-05-22T05:06:50.852Z,9.97
2019-05-22T05:09:34.328Z,9.40
2019-05-22T05:12:24.811Z,10.73
2019-05-22T05:15:08.214Z,9.60
2019-05-22T05:17:58.813Z,9.63
2019-05-22T05:20:42.289Z,9.67
2019-05-22T05:23:32.720Z,9.37
2019-05-22T05:26:16.249Z,9.17
2019-05-22T05:29:27.317Z,9.57
2019-05-22T05:32:10.966Z,9.50
2019-05-22T05:35:05.630Z,9.10
2019-05-22T05:37:48.589Z,9.60
2019-05-22T05:43:33.446Z,9.00
2019-05-22T05:46:23.800Z,8.70
2019-05-22T05:52:26.467Z,8.30
2019-05-22T05:55:55.791Z,8.07
2019-05-22T05:58:38.911Z,7.53
2019-05-22T06:04:55.592Z,7.67
2019-05-22T06:07:45.997Z,7.50
2019-05-22T06:10:48.453Z,7.60
2019-05-22T06:17:10.380Z,7.37
2019-05-22T06:27:18.919Z,6.27
2019-05-22T06:30:20.761Z,5.47
2019-05-22T06:36:56.954Z,5.33
2019-05-22T06:50:09.092Z,4.83
2019-05-22T06:53:09.378Z,5.30
2019-05-22T06:56:04.434Z,4.53
2019-05-22T06:58:47.618Z,5.10
2019-05-22T07:04:33.289Z,4.97
2019-05-22T07:10:27.123Z,4.83
2019-05-22T07:13:11.243Z,5.00
2019-05-22T07:16:41.414Z,4.83
2019-05-22T07:19:25.136Z,4.00
2019-05-22T07:22:15.662Z,4.57
2019-05-22T07:24:59.409Z,5.10
2019-05-22T07:27:50.013Z,5.40
2019-05-22T07:33:52.824Z,4.57
2019-05-22T07:36:54.181Z,4.63
2019-05-22T07:39:44.662Z,4.97
2019-05-22T07:42:27.329Z,6.00
2019-05-22T07:45:17.974Z,5.37
2019-05-22T07:48:21.399Z,6.07
2019-05-22T07:54:36.375Z,5.60
2019-05-22T08:01:10.905Z,5.87
2019-05-22T08:04:22.011Z,6.40
2019-05-22T08:07:06.955Z,6.17
2019-05-22T08:09:57.405Z,6.23
2019-05-22T08:12:40.613Z,5.83
2019-05-22T08:19:00.567Z,6.83
2019-05-22T08:22:06.232Z,6.80
2019-05-22T08:24:55.823Z,6.63
2019-05-22T08:31:15.853Z,6.40
2019-05-22T08:34:06.558Z,5.83
2019-05-22T08:36:49.898Z,5.90
2019-05-22T08:43:04.382Z,5.70
2019-05-22T08:45:55.306Z,6.37
2019-05-22T08:48:39.142Z,7.33
2019-05-22T08:51:29.993Z,7.57
2019-05-22T08:54:13.180Z,7.20
2019-05-22T09:00:32.718Z,6.60
2019-05-22T09:03:23.419Z,6.93
2019-05-22T09:09:43.205Z,6.37
2019-05-22T09:18:46.301Z,5.87
2019-05-22T09:24:41.474Z,5.40
2019-05-22T09:27:32.131Z,4.50
2019-05-22T09:30:16.047Z,4.23
2019-05-22T09:33:06.564Z,5.10
2019-05-22T09:35:49.315Z,4.80
2019-05-22T09:38:39.789Z,5.17
2019-05-22T09:41:22.630Z,5.50
2019-05-22T09:44:15.358Z,7.07
2019-05-22T09:47:19.264Z,7.27
2019-05-22T09:53:55.885Z,7.60
2019-05-22T09:56:46.299Z,8.33
2019-05-22T09:59:29.138Z,6.87
2019-05-22T10:02:19.795Z,6.27
2019-05-22T10:05:02.471Z,6.17
2019-05-22T10:08:00.518Z,6.37
2019-05-22T10:10:58.237Z,5.97
2019-05-22T10:13:49.001Z,5.13
2019-05-22T10:16:52.700Z,5.00
2019-05-22T10:19:43.103Z,5.60
2019-05-22T10:22:28.075Z,4.60
2019-05-22T10:25:18.536Z,5.07
2019-05-22T10:28:01.160Z,4.90
2019-05-22T10:30:52.133Z,5.27
2019-05-22T10:33:56.679Z,5.20
2019-05-22T10:36:47.178Z,6.00
2019-05-22T10:39:30.932Z,5.77
2019-05-22T10:45:46.327Z,6.50
2019-05-22T10:48:39.964Z,6.70
2019-05-22T10:51:41.647Z,5.90
2019-05-22T10:54:31.998Z,5.17
2019-05-22T10:57:15.166Z,4.73
2019-05-22T11:03:17.615Z,5.10
2019-05-22T11:09:19.042Z,4.90
2019-05-22T11:15:19.057Z,5.60
2019-05-22T11:21:19.916Z,5.03
2019-05-22T11:27:19.920Z,4.70
2019-05-22T11:30:21.820Z,3.90
2019-05-22T11:33:12.278Z,3.90
2019-05-22T11:35:55.856Z,4.57
2019-05-22T11:38:46.450Z,4.93
2019-05-22T11:41:30.105Z,4.80
2019-05-22T11:47:31.265Z,4.13
2019-05-22T11:54:09.408Z,4.17
2019-05-22T11:57:09.070Z,4.97
2019-05-22T11:59:59.664Z,4.10
2019-05-22T12:02:45.246Z,4.53
2019-05-22T12:09:07.300Z,4.70
2019-05-22T12:12:08.835Z,4.50
2019-05-22T12:14:59.636Z,4.50
2019-05-22T12:17:42.954Z,4.20
2019-05-22T12:20:33.605Z,4.90
2019-05-22T12:23:16.432Z,4.40
2019-05-22T12:29:24.636Z,4.10
2019-05-22T12:32:15.070Z,4.67
2019-05-22T12:34:58.389Z,4.27
2019-05-22T12:40:59.237Z,4.90
2019-05-22T12:43:52.362Z,4.60
2019-05-22T12:46:35.484Z,4.80
2019-05-22T12:52:54.537Z,4.20
2019-05-22T12:55:45.342Z,4.80
2019-05-22T12:58:28.702Z,4.17
2019-05-22T13:01:12.579Z,4.50
2019-05-22T13:07:31.783Z,4.23
2019-05-22T13:10:22.395Z,4.00
2019-05-22T13:13:05.859Z,3.80
2019-05-22T13:16:07.531Z,4.27
2019-05-22T13:18:57.907Z,4.67
2019-05-22T13:21:42.306Z,4.20
2019-05-22T13:27:36.436Z,4.50
2019-05-22T13:33:50.581Z,3.50
2019-05-22T13:36:41.568Z,3.73
2019-05-22T13:39:25.157Z,4.00
2019-05-22T13:42:15.606Z,3.60
2019-05-22T13:44:59.213Z,3.90
2019-05-22T13:47:49.791Z,3.80
2019-05-22T13:50:32.975Z,4.70
2019-05-22T13:53:23.752Z,3.43
2019-05-22T13:56:07.565Z,4.43
2019-05-22T14:02:27.415Z,3.30
2019-05-22T14:05:13.754Z,3.50
2019-05-22T14:08:03.073Z,3.20
2019-05-22T14:14:24.673Z,3.40
2019-05-22T14:17:08.027Z,3.60
2019-05-22T14:19:58.466Z,3.47
2019-05-22T14:22:41.547Z,3.93
2019-05-22T14:25:32.133Z,3.77
2019-05-22T14:28:16.029Z,3.80
2019-05-22T14:31:06.637Z,3.40
2019-05-22T14:33:50.065Z,3.30
2019-05-22T14:36:51.731Z,3.43
2019-05-22T14:39:42.150Z,3.53
2019-05-22T14:42:26.154Z,2.97
2019-05-22T14:48:45.533Z,3.60
2019-05-22T14:51:35.970Z,3.60
2019-05-22T14:54:19.633Z,3.37
2019-05-22T14:57:10.174Z,3.30
2019-05-22T14:59:53.241Z,3.30
2019-05-22T15:02:43.827Z,3.07
2019-05-22T15:05:34.325Z,3.37
2019-05-22T15:08:25.001Z,3.50
2019-05-22T15:11:08.598Z,3.70
2019-05-22T15:13:59.118Z,3.30
2019-05-22T15:16:49.492Z,3.50
2019-05-22T15:19:39.881Z,3.30
2019-05-22T15:22:22.855Z,3.03
2019-05-22T15:25:13.515Z,3.03
2019-05-22T15:27:56.563Z,3.27
2019-05-22T15:30:47.389Z,2.90
2019-05-22T15:33:30.562Z,2.73
2019-05-22T15:36:16.043Z,3.00
2019-05-22T15:39:46.188Z,2.60
2019-05-22T15:42:34.651Z,3.27
2019-05-22T15:46:04.753Z,3.20
2019-05-22T15:48:48.884Z,3.80
2019-05-22T15:55:10.588Z,3.40
2019-05-22T16:01:33.737Z,3.70
2019-05-22T16:07:17.413Z,3.67
2019-05-22T16:13:04.943Z,3.17
2019-05-22T16:19:17.374Z,3.10
2019-05-22T16:22:01.977Z,3.60
2019-05-22T16:24:53.189Z,3.27
2019-05-22T16:27:37.261Z,3.37
2019-05-22T16:33:39.493Z,4.27
2019-05-22T16:39:54.120Z,3.93
2019-05-22T16:42:44.595Z,4.23
2019-05-22T16:45:30.123Z,4.33
2019-05-22T16:48:32.657Z,4.10
2019-05-22T16:51:23.521Z,4.07
2019-05-22T16:54:08.487Z,4.10
2019-05-22T16:57:10.016Z,4.40
2019-05-22T17:00:20.852Z,3.70
2019-05-22T17:03:04.115Z,3.97
2019-05-22T17:05:55.016Z,3.97
2019-05-22T17:08:38.789Z,4.33
2019-05-22T17:14:58.032Z,3.90
2019-05-22T17:24:39.886Z,4.30
2019-05-22T17:27:22.861Z,4.27
2019-05-22T17:30:33.864Z,4.33
2019-05-22T17:33:24.418Z,4.43
2019-05-22T17:36:08.924Z,4.37
2019-05-22T17:42:10.722Z,4.60
2019-05-22T17:48:33.203Z,4.47
2019-05-22T17:54:47.645Z,4.87
2019-05-22T17:57:31.231Z,4.50
2019-05-22T18:03:36.402Z,4.20
2019-05-22T18:09:36.457Z,3.50
2019-05-22T18:12:38.382Z,4.10
2019-05-22T18:15:28.778Z,3.73
2019-05-22T18:18:12.786Z,4.63
2019-05-22T18:21:03.290Z,4.57
2019-05-22T18:23:54.060Z,4.27
2019-05-22T18:26:36.921Z,4.33
2019-05-22T18:29:27.342Z,4.17
2019-05-22T18:32:10.606Z,3.77
2019-05-22T18:35:19.939Z,3.73
2019-05-22T18:38:10.647Z,3.93
2019-05-22T18:41:01.154Z,4.20
2019-05-22T18:43:44.889Z,4.00
2019-05-22T18:46:36.141Z,3.83
2019-05-22T18:49:18.707Z,4.10
2019-05-22T18:52:09.257Z,4.00
2019-05-22T18:54:52.550Z,3.60
2019-05-22T18:57:43.116Z,3.67
2019-05-22T19:00:27.062Z,3.63
2019-05-22T19:03:17.554Z,3.63
2019-05-22T19:06:02.087Z,5.70
2019-05-22T19:08:52.495Z,7.00
2019-05-22T19:11:35.943Z,7.30
2019-05-22T19:14:46.641Z,5.10
2019-05-22T19:17:30.936Z,4.43
2019-05-22T19:23:50.644Z,3.70
2019-05-22T19:26:33.972Z,3.90
2019-05-22T19:29:17.076Z,3.90
2019-05-22T19:31:48.622Z,3.70
2019-05-22T19:37:56.768Z,3.37
2019-05-22T19:40:47.338Z,4.00
2019-05-22T19:43:37.819Z,4.43
2019-05-22T19:50:22.228Z,4.10
2019-05-22T19:56:50.495Z,4.20
2019-05-22T19:59:56.034Z,4.40
2019-05-22T20:06:33.637Z,5.73
2019-05-22T20:09:55.060Z,5.07
2019-05-22T20:16:33.521Z,5.83
2019-05-22T20:19:43.909Z,5.50
2019-05-22T20:22:47.577Z,5.07
2019-05-22T20:25:38.021Z,5.33
2019-05-22T20:28:40.833Z,5.27
2019-05-22T20:31:44.729Z,4.87
2019-05-22T20:38:05.434Z,4.83
2019-05-22T20:41:16.174Z,4.90
2019-05-22T20:44:20.392Z,4.97
2019-05-22T20:47:25.349Z,6.07
2019-05-22T20:54:19.553Z,5.97
2019-05-22T20:57:33.828Z,5.60
2019-05-22T21:00:37.413Z,5.40
2019-05-22T21:03:48.074Z,6.03
2019-05-22T21:06:59.870Z,5.37
2019-05-22T21:13:32.920Z,6.67
2019-05-22T21:22:52.911Z,9.40
2019-05-22T21:28:56.934Z,8.60
2019-05-22T21:35:12.179Z,8.90
2019-05-22T21:41:46.296Z,9.90
2019-05-22T21:45:14.921Z,9.50
2019-05-22T21:47:58.296Z,10.00
2019-05-22T21:50:48.701Z,9.20
2019-05-22T21:53:36.683Z,11.27
2019-05-22T21:56:21.392Z,10.93
2019-05-22T21:59:11.942Z,10.53
2019-05-22T22:08:31.782Z,10.70
2019-05-22T22:14:52.713Z,10.67
2019-05-22T22:17:38.432Z,11.20
2019-05-22T22:20:29.137Z,11.23
2019-05-22T22:23:13.430Z,14.00
2019-05-22T22:26:03.960Z,12.67
2019-05-22T22:28:47.704Z,12.50
2019-05-22T22:31:32.338Z,11.57
2019-05-22T22:38:12.915Z,12.50
2019-05-22T22:41:13.993Z,14.03
2019-05-22T22:44:24.840Z,12.67
2019-05-22T22:47:26.347Z,11.40
2019-05-22T22:50:37.280Z,12.67
2019-05-22T22:53:21.413Z,12.30
2019-05-22T22:59:07.733Z,13.73
2019-05-22T23:05:28.525Z,14.20
2019-05-22T23:11:45.919Z,13.53
2019-05-22T23:14:29.511Z,13.40
2019-05-22T23:20:13.669Z,18.10
2019-05-22T23:26:27.500Z,21.90
2019-05-22T23:29:11.591Z,22.30
2019-05-22T23:35:16.337Z,19.70
2019-05-22T23:38:06.840Z,20.00
2019-05-22T23:40:50.659Z,17.60
2019-05-22T23:47:11.369Z,19.63
2019-05-22T23:49:54.358Z,15.57
2019-05-22T23:52:45.032Z,15.03
2019-05-22T23:55:29.525Z,13.67
2019-05-22T23:58:14.165Z,14.37
